Time;durP1;ratioP1;P1;durP2;ratioP2;P2;SDS_P1;SDS_P2;PMS_P1;PMS_P2;Temp;Humidity;BMP_temperature;BMP_pressure;BME280_temperature;BME280_humidity;BME280_pressure;Samples;Min_cycle;Max_cycle;Signal;HPM_P1;HPM_P2
2022/03/28 00:01:44;;;;;;;24.27;5.70;;;;;;;;;;5059690;28;20245;-60
2022/03/28 00:04:10;;;;;;;27.30;5.85;;;;;;;;;;5047349;28;20218;-60
2022/03/28 00:06:35;;;;;;;28.67;5.50;;;;;;;;;;5062179;28;20214;-60
2022/03/28 00:09:01;;;;;;;27.63;4.97;;;;;;;;;;5044479;28;20717;-61
2022/03/28 00:11:27;;;;;;;29.55;5.55;;;;;;;;;;5042368;28;20226;-60
2022/03/28 00:13:52;;;;;;;21.73;5.55;;;;;;;;;;5033494;28;20456;-60
2022/03/28 00:16:17;;;;;;;23.08;5.60;;;;;;;;;;5040451;28;20221;-60
2022/03/28 00:18:42;;;;;;;25.35;5.38;;;;;;;;;;5054274;28;20214;-60
2022/03/28 00:21:08;;;;;;;30.77;6.10;;;;;;;;;;5058788;28;20211;-60
2022/03/28 00:23:33;;;;;;;27.50;6.00;;;;;;;;;;5061347;28;20670;-60
2022/03/28 00:25:59;;;;;;;27.48;5.35;;;;;;;;;;5065972;28;20210;-60
2022/03/28 00:28:25;;;;;;;25.73;5.35;;;;;;;;;;5065677;28;20221;-60
2022/03/28 00:30:50;;;;;;;26.10;5.30;;;;;;;;;;5065151;28;20210;-60
2022/03/28 00:33:15;;;;;;;30.33;6.20;;;;;;;;;;5058408;28;20740;-60
2022/03/28 00:35:41;;;;;;;25.15;5.40;;;;;;;;;;5043749;28;20432;-60
2022/03/28 00:38:06;;;;;;;27.92;5.20;;;;;;;;;;5037064;28;20606;-60
2022/03/28 00:40:32;;;;;;;29.52;5.43;;;;;;;;;;5039632;28;20237;-60
2022/03/28 00:42:59;;;;;;;25.02;5.50;;;;;;;;;;5059593;28;20392;-60
2022/03/28 00:45:24;;;;;;;25.17;5.60;;;;;;;;;;5055329;28;20207;-60
2022/03/28 00:47:50;;;;;;;26.45;5.20;;;;;;;;;;5046222;28;20287;-60
2022/03/28 00:50:15;;;;;;;27.25;5.57;;;;;;;;;;5064583;28;20692;-60
2022/03/28 00:52:40;;;;;;;28.33;5.43;;;;;;;;;;5065087;28;20757;-60
2022/03/28 00:55:07;;;;;;;27.58;5.35;;;;;;;;;;5064906;28;20217;-61
2022/03/28 00:57:32;;;;;;;27.20;6.55;;;;;;;;;;5047913;28;20249;-60
2022/03/28 00:59:58;;;;;;;29.30;5.30;;;;;;;;;;5042139;28;20662;-60
2022/03/28 01:02:23;;;;;;;26.77;5.68;;;;;;;;;;5037452;28;20215;-60
2022/03/28 01:04:50;;;;;;;23.83;5.88;;;;;;;;;;5039077;28;20202;-60
2022/03/28 01:07:16;;;;;;;27.73;5.40;;;;;;;;;;5057614;28;20250;-60
2022/03/28 01:09:42;;;;;;;29.48;5.60;;;;;;;;;;5046110;28;20302;-60
2022/03/28 01:12:07;;;;;;;27.40;6.15;;;;;;;;;;5046564;28;20739;-60
2022/03/28 01:14:33;;;;;;;29.05;5.63;;;;;;;;;;5064174;28;20203;-60
2022/03/28 01:19:42;;;;;;;27.05;5.35;;;;;;;;;;5063944;28;20220;-60
2022/03/28 01:22:07;;;;;;;23.88;5.47;;;;;;;;;;5058580;28;20797;-60
2022/03/28 01:24:33;;;;;;;23.27;5.55;;;;;;;;;;5057440;28;20216;-60
2022/03/28 01:26:58;;;;;;;26.50;5.50;;;;;;;;;;5056716;28;20752;-60
2022/03/28 01:29:24;;;;;;;29.83;6.57;;;;;;;;;;5061968;28;20222;-60
2022/03/28 01:31:49;;;;;;;24.40;5.20;;;;;;;;;;5064648;28;20590;-60
2022/03/28 01:34:16;;;;;;;25.80;6.05;;;;;;;;;;5063819;28;20248;-60
2022/03/28 01:36:44;;;;;;;30.73;5.78;;;;;;;;;;5063756;28;20746;-60
2022/03/28 01:39:10;;;;;;;24.50;6.35;;;;;;;;;;5064266;28;20218;-60
2022/03/28 01:41:35;;;;;;;27.38;6.30;;;;;;;;;;5064378;28;20220;-60
2022/03/28 01:44:00;;;;;;;25.60;5.85;;;;;;;;;;5060629;28;20692;-60
2022/03/28 01:46:26;;;;;;;31.85;6.72;;;;;;;;;;5038364;28;20485;-60
2022/03/28 01:48:51;;;;;;;28.95;6.22;;;;;;;;;;5036232;28;20845;-60
2022/03/28 01:51:16;;;;;;;24.10;5.90;;;;;;;;;;5039797;28;20218;-60
2022/03/28 01:53:41;;;;;;;30.58;6.57;;;;;;;;;;5063923;28;20292;-60
2022/03/28 01:56:07;;;;;;;33.25;6.57;;;;;;;;;;5063129;28;20241;-60
2022/03/28 01:58:32;;;;;;;25.85;6.38;;;;;;;;;;5061296;28;20292;-60
2022/03/28 02:00:57;;;;;;;28.48;6.18;;;;;;;;;;5044493;28;20219;-60
2022/03/28 02:03:23;;;;;;;29.77;6.47;;;;;;;;;;5043626;28;20685;-60
2022/03/28 02:05:48;;;;;;;28.92;6.45;;;;;;;;;;5063120;28;20209;-60
2022/03/28 02:08:13;;;;;;;25.98;6.50;;;;;;;;;;5042041;28;20217;-60
2022/03/28 02:10:38;;;;;;;26.10;6.53;;;;;;;;;;5036229;28;20566;-60
2022/03/28 02:13:04;;;;;;;30.27;7.35;;;;;;;;;;5036900;28;20227;-60
2022/03/28 02:15:29;;;;;;;28.33;6.97;;;;;;;;;;5043780;28;20681;-60
2022/03/28 02:17:55;;;;;;;24.48;6.85;;;;;;;;;;5043450;28;20214;-60
2022/03/28 02:20:20;;;;;;;32.53;7.10;;;;;;;;;;5044171;28;20363;-60
2022/03/28 02:22:46;;;;;;;33.20;7.80;;;;;;;;;;5043072;28;20211;-60
2022/03/28 02:25:12;;;;;;;23.63;6.68;;;;;;;;;;5044085;28;20678;-60
2022/03/28 02:27:37;;;;;;;29.63;6.85;;;;;;;;;;5063718;28;20221;-60
2022/03/28 02:30:04;;;;;;;28.88;7.00;;;;;;;;;;5051808;28;20341;-61
2022/03/28 02:32:29;;;;;;;23.52;7.10;;;;;;;;;;5055076;28;20230;-60
2022/03/28 02:34:54;;;;;;;26.23;6.88;;;;;;;;;;5056095;28;20221;-60
2022/03/28 02:37:20;;;;;;;22.55;6.55;;;;;;;;;;5059640;28;20219;-60
2022/03/28 02:39:45;;;;;;;25.45;7.20;;;;;;;;;;5063395;28;20217;-60
2022/03/28 02:42:10;;;;;;;27.92;7.55;;;;;;;;;;5063099;28;20803;-60
2022/03/28 02:44:36;;;;;;;30.38;8.18;;;;;;;;;;5060106;28;20210;-60
2022/03/28 02:47:01;;;;;;;27.83;7.00;;;;;;;;;;5042991;28;20281;-60
2022/03/28 02:49:26;;;;;;;29.15;7.40;;;;;;;;;;5043585;28;20207;-60
2022/03/28 02:51:51;;;;;;;25.05;7.25;;;;;;;;;;5040257;28;20242;-60
2022/03/28 02:54:17;;;;;;;27.63;7.22;;;;;;;;;;5035045;28;21611;-60
2022/03/28 02:56:42;;;;;;;23.52;7.55;;;;;;;;;;5035615;28;20512;-60
2022/03/28 02:59:07;;;;;;;26.98;7.30;;;;;;;;;;5037124;28;20207;-60
2022/03/28 03:01:33;;;;;;;28.05;7.13;;;;;;;;;;5043178;28;20269;-60
2022/03/28 03:03:58;;;;;;;22.73;7.00;;;;;;;;;;5043179;28;20249;-60
2022/03/28 03:06:23;;;;;;;27.27;7.00;;;;;;;;;;5042579;28;20253;-60
2022/03/28 03:08:50;;;;;;;22.23;7.32;;;;;;;;;;5061362;28;20233;-60
2022/03/28 03:11:15;;;;;;;25.65;6.80;;;;;;;;;;5042752;28;20211;-60
2022/03/28 03:13:40;;;;;;;24.95;7.20;;;;;;;;;;5043159;28;20260;-60
2022/03/28 03:16:06;;;;;;;23.10;6.60;;;;;;;;;;5034102;28;20218;-60
2022/03/28 03:18:31;;;;;;;27.67;7.40;;;;;;;;;;5035311;28;20499;-60
2022/03/28 03:20:56;;;;;;;23.90;7.22;;;;;;;;;;5035002;28;20346;-60
2022/03/28 03:23:22;;;;;;;22.58;6.90;;;;;;;;;;5042517;28;20218;-60
2022/03/28 03:25:48;;;;;;;23.35;7.80;;;;;;;;;;5043052;28;20206;-60
2022/03/28 03:28:14;;;;;;;23.88;7.47;;;;;;;;;;5042101;28;20207;-60
2022/03/28 03:30:39;;;;;;;21.70;7.00;;;;;;;;;;5042556;28;20280;-60
2022/03/28 03:33:07;;;;;;;22.40;7.15;;;;;;;;;;5041689;28;20645;-60
2022/03/28 03:35:32;;;;;;;23.20;7.45;;;;;;;;;;5062659;28;20239;-60
2022/03/28 03:37:57;;;;;;;26.00;7.38;;;;;;;;;;5037049;28;20242;-60
2022/03/28 03:40:22;;;;;;;22.27;7.07;;;;;;;;;;5034944;28;20218;-60
2022/03/28 03:42:48;;;;;;;21.27;7.75;;;;;;;;;;5050835;28;20681;-61
2022/03/28 03:45:14;;;;;;;23.20;7.63;;;;;;;;;;5040725;28;20207;-61
2022/03/28 03:47:39;;;;;;;20.23;7.15;;;;;;;;;;5042165;28;20226;-61
2022/03/28 03:50:05;;;;;;;22.30;7.57;;;;;;;;;;5042145;28;20596;-61
2022/03/28 03:52:30;;;;;;;20.70;7.27;;;;;;;;;;5042808;28;20230;-61
2022/03/28 03:54:56;;;;;;;21.20;7.03;;;;;;;;;;5041753;28;20268;-61
2022/03/28 03:57:21;;;;;;;18.90;8.25;;;;;;;;;;5042291;28;20235;-61
2022/03/28 03:59:46;;;;;;;22.45;7.82;;;;;;;;;;5038107;28;20592;-61
2022/03/28 04:02:12;;;;;;;20.65;8.65;;;;;;;;;;5052451;28;20215;-61
2022/03/28 04:04:37;;;;;;;19.83;7.47;;;;;;;;;;5054085;28;20206;-61
2022/03/28 04:07:02;;;;;;;18.27;7.60;;;;;;;;;;5053614;28;20308;-61
2022/03/28 04:09:28;;;;;;;19.27;8.10;;;;;;;;;;5041724;28;20211;-61
2022/03/28 04:11:53;;;;;;;17.45;7.55;;;;;;;;;;5042826;28;20218;-61
2022/03/28 04:14:18;;;;;;;21.83;8.00;;;;;;;;;;5041622;28;20745;-61
2022/03/28 04:16:44;;;;;;;16.85;7.10;;;;;;;;;;5042095;28;20364;-61
2022/03/28 04:19:09;;;;;;;15.63;7.68;;;;;;;;;;5061259;28;20214;-61
2022/03/28 04:21:34;;;;;;;18.95;7.88;;;;;;;;;;5061263;28;20343;-61
2022/03/28 04:24:00;;;;;;;16.67;7.47;;;;;;;;;;5053087;28;20206;-61
2022/03/28 04:26:25;;;;;;;19.67;7.95;;;;;;;;;;5053177;28;20206;-61
2022/03/28 04:28:50;;;;;;;17.35;7.88;;;;;;;;;;5055095;28;20218;-61
2022/03/28 04:31:16;;;;;;;18.35;7.80;;;;;;;;;;5060378;28;20364;-61
2022/03/28 04:33:41;;;;;;;18.38;7.32;;;;;;;;;;5062095;28;20230;-60
2022/03/28 04:36:06;;;;;;;18.25;7.90;;;;;;;;;;5061659;28;20218;-61
2022/03/28 04:38:32;;;;;;;19.35;8.63;;;;;;;;;;5061399;28;20264;-61
2022/03/28 04:40:57;;;;;;;22.07;8.70;;;;;;;;;;5043918;28;20219;-61
2022/03/28 04:43:22;;;;;;;20.48;8.75;;;;;;;;;;5061087;28;20206;-61
2022/03/28 04:45:48;;;;;;;17.45;8.50;;;;;;;;;;5041512;28;20211;-61
2022/03/28 04:48:13;;;;;;;22.20;9.07;;;;;;;;;;5052571;28;20206;-61
2022/03/28 04:50:38;;;;;;;17.02;8.70;;;;;;;;;;5053343;28;20438;-61
2022/03/28 04:53:04;;;;;;;22.40;9.63;;;;;;;;;;5059064;28;20660;-61
2022/03/28 04:55:29;;;;;;;20.87;9.37;;;;;;;;;;5061686;28;20681;-61
2022/03/28 04:57:55;;;;;;;19.93;9.60;;;;;;;;;;5060864;28;20230;-60
2022/03/28 05:00:20;;;;;;;18.98;10.45;;;;;;;;;;5043366;28;20677;-61
2022/03/28 05:02:45;;;;;;;21.57;10.90;;;;;;;;;;5042077;28;20218;-61
2022/03/28 05:05:11;;;;;;;23.55;10.93;;;;;;;;;;5060705;28;20233;-61
2022/03/28 05:07:36;;;;;;;19.40;10.17;;;;;;;;;;5049826;28;20214;-61
2022/03/28 05:10:03;;;;;;;21.07;10.83;;;;;;;;;;5033725;28;20237;-61
2022/03/28 05:12:29;;;;;;;20.08;11.50;;;;;;;;;;5036814;28;20317;-61
2022/03/28 05:14:54;;;;;;;21.65;12.05;;;;;;;;;;5041061;28;20211;-61
2022/03/28 05:17:23;;;;;;;16.88;10.73;;;;;;;;;;5044741;28;20230;-61
2022/03/28 05:19:48;;;;;;;21.17;11.68;;;;;;;;;;5063740;28;20214;-61
2022/03/28 05:22:13;;;;;;;19.93;11.10;;;;;;;;;;5064875;28;20214;-61
2022/03/28 05:24:39;;;;;;;17.77;11.23;;;;;;;;;;5064957;28;20214;-60
2022/03/28 05:27:04;;;;;;;19.30;10.50;;;;;;;;;;5064192;28;20218;-60
2022/03/28 05:29:30;;;;;;;18.53;10.17;;;;;;;;;;5064871;28;20241;-61
2022/03/28 05:31:55;;;;;;;15.27;8.93;;;;;;;;;;5056403;28;20306;-60
2022/03/28 05:34:20;;;;;;;16.77;10.07;;;;;;;;;;5055908;28;20731;-60
2022/03/28 05:36:45;;;;;;;15.43;11.23;;;;;;;;;;5045063;28;21084;-62
2022/03/28 05:39:12;;;;;;;17.83;11.07;;;;;;;;;;5044660;28;20696;-61
2022/03/28 05:41:37;;;;;;;14.00;9.07;;;;;;;;;;5050528;28;20203;-61
2022/03/28 05:44:03;;;;;;;13.40;9.33;;;;;;;;;;5027690;28;20214;-61
2022/03/28 05:46:28;;;;;;;15.02;9.15;;;;;;;;;;5047333;28;20215;-61
2022/03/28 05:48:53;;;;;;;13.87;9.23;;;;;;;;;;5046334;28;20617;-61
2022/03/28 05:51:19;;;;;;;16.98;10.70;;;;;;;;;;5045419;28;20215;-61
2022/03/28 05:53:44;;;;;;;15.57;9.77;;;;;;;;;;5038979;28;21198;-61
2022/03/28 05:56:09;;;;;;;18.40;10.97;;;;;;;;;;5036549;28;20246;-61
2022/03/28 05:58:34;;;;;;;18.10;10.80;;;;;;;;;;5037288;28;20207;-60
2022/03/28 06:01:00;;;;;;;14.80;9.87;;;;;;;;;;5041841;28;20226;-61
2022/03/28 06:03:26;;;;;;;15.77;9.87;;;;;;;;;;5045117;28;20215;-61
2022/03/28 06:05:51;;;;;;;12.37;8.43;;;;;;;;;;5045348;28;20306;-61
2022/03/28 06:08:16;;;;;;;13.47;9.20;;;;;;;;;;5045425;28;20696;-61
2022/03/28 06:10:41;;;;;;;19.30;13.13;;;;;;;;;;5029992;28;20532;-61
2022/03/28 06:13:08;;;;;;;17.30;11.10;;;;;;;;;;5044844;28;20235;-61
2022/03/28 06:15:36;;;;;;;17.37;10.93;;;;;;;;;;5041143;28;20756;-62
2022/03/28 06:18:03;;;;;;;16.33;10.27;;;;;;;;;;5036082;28;20297;-61
2022/03/28 06:20:28;;;;;;;16.93;10.93;;;;;;;;;;5049422;28;20411;-62
2022/03/28 06:22:54;;;;;;;17.70;10.43;;;;;;;;;;5057888;28;20722;-62
2022/03/28 06:25:19;;;;;;;15.60;10.13;;;;;;;;;;5063549;28;20215;-61
2022/03/28 06:27:45;;;;;;;14.47;9.87;;;;;;;;;;5060071;28;20306;-61
2022/03/28 06:30:11;;;;;;;19.63;10.93;;;;;;;;;;5042769;28;20568;-61
2022/03/28 06:32:37;;;;;;;14.33;10.13;;;;;;;;;;5044199;28;20314;-62
2022/03/28 06:35:04;;;;;;;221.77;18.97;;;;;;;;;;5043310;28;20752;-61
2022/03/28 06:37:30;;;;;;;25.77;11.97;;;;;;;;;;5042503;28;20207;-62
2022/03/28 06:39:55;;;;;;;29.83;12.13;;;;;;;;;;5036276;28;20621;-62
2022/03/28 06:42:20;;;;;;;30.50;13.43;;;;;;;;;;5035030;28;20235;-62
2022/03/28 06:44:45;;;;;;;71.80;14.13;;;;;;;;;;5037483;28;20337;-62
2022/03/28 06:47:11;;;;;;;32.43;13.33;;;;;;;;;;5045192;28;20301;-61
2022/03/28 06:49:36;;;;;;;19.20;11.77;;;;;;;;;;5043745;28;20215;-63
2022/03/28 06:52:02;;;;;;;18.33;11.47;;;;;;;;;;5042560;28;20238;-64
2022/03/28 06:54:27;;;;;;;18.70;10.83;;;;;;;;;;5057642;28;20230;-63
2022/03/28 06:56:52;;;;;;;20.97;11.50;;;;;;;;;;5046520;28;20274;-63
2022/03/28 06:59:19;;;;;;;18.57;10.87;;;;;;;;;;5040670;28;20260;-63
2022/03/28 07:01:45;;;;;;;16.43;10.13;;;;;;;;;;5047324;28;20203;-63
2022/03/28 07:04:10;;;;;;;13.87;8.93;;;;;;;;;;5049628;28;20214;-62
2022/03/28 07:06:37;;;;;;;16.27;10.40;;;;;;;;;;5070900;28;20692;-63
2022/03/28 07:09:04;;;;;;;17.83;10.30;;;;;;;;;;5050958;28;20582;-62
2022/03/28 07:11:30;;;;;;;16.63;10.43;;;;;;;;;;5050565;28;20215;-63
2022/03/28 07:13:55;;;;;;;16.03;10.27;;;;;;;;;;5051071;28;20227;-63
2022/03/28 07:16:20;;;;;;;19.87;10.83;;;;;;;;;;5050614;28;20305;-62
2022/03/28 07:18:46;;;;;;;15.80;10.37;;;;;;;;;;5050459;28;20539;-63
2022/03/28 07:21:11;;;;;;;17.13;10.70;;;;;;;;;;5050286;28;20211;-63
2022/03/28 07:23:36;;;;;;;19.07;10.70;;;;;;;;;;5051113;28;20211;-63
2022/03/28 07:26:02;;;;;;;16.27;10.50;;;;;;;;;;5049601;28;20223;-62
2022/03/28 07:28:27;;;;;;;15.50;9.67;;;;;;;;;;5050931;28;20219;-63
2022/03/28 07:30:52;;;;;;;17.30;9.60;;;;;;;;;;5050927;28;20229;-62
2022/03/28 07:33:18;;;;;;;17.37;9.77;;;;;;;;;;5048858;28;20694;-62
2022/03/28 07:35:45;;;;;;;15.87;9.70;;;;;;;;;;5050581;28;20211;-63
2022/03/28 07:38:10;;;;;;;17.83;10.00;;;;;;;;;;5050166;28;20211;-62
2022/03/28 07:40:36;;;;;;;22.57;11.17;;;;;;;;;;5050065;28;20260;-63
2022/03/28 07:43:02;;;;;;;76.73;14.03;;;;;;;;;;5042415;28;20217;-62
2022/03/28 07:45:28;;;;;;;24.27;12.37;;;;;;;;;;5060568;28;20739;-62
2022/03/28 07:47:53;;;;;;;31.73;13.57;;;;;;;;;;5049939;28;20215;-63
2022/03/28 07:50:18;;;;;;;24.23;13.30;;;;;;;;;;5050175;28;20223;-63
2022/03/28 07:52:43;;;;;;;24.50;12.40;;;;;;;;;;5050446;28;20542;-62
2022/03/28 07:55:10;;;;;;;23.13;12.60;;;;;;;;;;5049393;28;20219;-63
2022/03/28 07:57:36;;;;;;;28.73;13.23;;;;;;;;;;5050269;28;20592;-63
2022/03/28 08:00:04;;;;;;;23.87;12.97;;;;;;;;;;5065750;28;20598;-63
2022/03/28 08:02:29;;;;;;;22.30;12.60;;;;;;;;;;5042457;28;20735;-63
2022/03/28 08:04:54;;;;;;;23.13;12.43;;;;;;;;;;5057889;28;20257;-63
2022/03/28 08:07:20;;;;;;;21.88;12.45;;;;;;;;;;5068750;28;20226;-63
2022/03/28 08:09:45;;;;;;;18.37;11.23;;;;;;;;;;5068805;28;20680;-63
2022/03/28 08:12:10;;;;;;;16.33;10.43;;;;;;;;;;5069632;28;20246;-63
2022/03/28 08:14:36;;;;;;;16.50;9.50;;;;;;;;;;5054634;28;20215;-63
2022/03/28 08:17:02;;;;;;;22.63;11.53;;;;;;;;;;5049661;28;20211;-63
2022/03/28 08:19:27;;;;;;;21.00;12.07;;;;;;;;;;5050349;28;20568;-63
2022/03/28 08:21:53;;;;;;;20.53;11.77;;;;;;;;;;5049526;28;20748;-63
2022/03/28 08:24:18;;;;;;;22.20;12.93;;;;;;;;;;5049480;28;20709;-63
2022/03/28 08:26:44;;;;;;;20.20;12.67;;;;;;;;;;5050232;28;20579;-63
2022/03/28 08:29:09;;;;;;;21.52;12.23;;;;;;;;;;5048773;28;20669;-64
2022/03/28 08:31:34;;;;;;;59.70;15.47;;;;;;;;;;5050023;28;20210;-64
2022/03/28 08:33:59;;;;;;;28.80;14.70;;;;;;;;;;5050104;28;20313;-64
2022/03/28 08:36:25;;;;;;;22.77;12.60;;;;;;;;;;5048872;28;20215;-63
2022/03/28 08:38:50;;;;;;;22.70;13.10;;;;;;;;;;5049919;28;20219;-64
2022/03/28 08:41:17;;;;;;;19.97;12.43;;;;;;;;;;5049787;28;20230;-64
2022/03/28 08:43:42;;;;;;;19.63;12.17;;;;;;;;;;5049195;28;20215;-64
2022/03/28 08:46:08;;;;;;;19.20;11.83;;;;;;;;;;5051945;28;20213;-64
2022/03/28 08:48:34;;;;;;;21.65;12.48;;;;;;;;;;5053854;28;20238;-64
2022/03/28 08:51:00;;;;;;;18.55;11.57;;;;;;;;;;5053206;28;20346;-64
2022/03/28 08:53:25;;;;;;;22.80;13.77;;;;;;;;;;5035450;28;20314;-64
2022/03/28 08:55:51;;;;;;;23.15;12.82;;;;;;;;;;5053747;28;20311;-64
2022/03/28 08:58:17;;;;;;;28.67;17.85;;;;;;;;;;5054477;28;20293;-64
2022/03/28 09:00:42;;;;;;;40.63;26.52;;;;;;;;;;5075486;28;20268;-65
2022/03/28 09:03:08;;;;;;;17.23;11.33;;;;;;;;;;5057337;28;20211;-61
2022/03/28 09:05:34;;;;;;;19.13;11.05;;;;;;;;;;5054710;28;20537;-61
2022/03/28 09:07:59;;;;;;;21.07;13.10;;;;;;;;;;5055509;28;20215;-64
2022/03/28 09:10:27;;;;;;;17.33;11.00;;;;;;;;;;5055615;28;20693;-63
2022/03/28 09:12:57;;;;;;;20.30;12.73;;;;;;;;;;5038803;28;20223;-63
2022/03/28 09:15:23;;;;;;;20.55;12.00;;;;;;;;;;5084625;28;20713;-63
2022/03/28 09:17:54;;;;;;;18.60;11.32;;;;;;;;;;5092896;28;20234;-64
2022/03/28 09:20:20;;;;;;;17.77;11.05;;;;;;;;;;5074713;28;20548;-64
2022/03/28 09:22:45;;;;;;;20.00;12.00;;;;;;;;;;5049117;28;20289;-64
2022/03/28 09:25:12;;;;;;;19.17;11.32;;;;;;;;;;5046566;28;20669;-64
2022/03/28 09:27:39;;;;;;;16.13;10.90;;;;;;;;;;5075374;28;20217;-64
2022/03/28 09:30:05;;;;;;;16.48;10.02;;;;;;;;;;5074486;28;20222;-64
2022/03/28 09:32:32;;;;;;;16.83;11.55;;;;;;;;;;5074268;28;20222;-64
2022/03/28 09:35:06;;;;;;;17.02;10.85;;;;;;;;;;5070855;28;20290;-64
2022/03/28 09:37:46;;;;;;;17.63;11.45;;;;;;;;;;5036663;28;20203;-64
2022/03/28 09:40:22;;;;;;;18.00;10.55;;;;;;;;;;5053551;28;20658;-64
2022/03/28 09:42:48;;;;;;;16.57;10.67;;;;;;;;;;5054997;28;20213;-65
2022/03/28 09:45:18;;;;;;;14.88;10.20;;;;;;;;;;5061918;28;20211;-64
2022/03/28 09:47:52;;;;;;;16.48;10.50;;;;;;;;;;5059129;28;20224;-64
2022/03/28 09:50:18;;;;;;;15.43;10.18;;;;;;;;;;5054276;28;20213;-65
2022/03/28 09:52:44;;;;;;;15.40;8.95;;;;;;;;;;5054352;28;20218;-65
2022/03/28 09:55:10;;;;;;;14.63;8.40;;;;;;;;;;5060863;28;20226;-65
2022/03/28 09:57:36;;;;;;;13.55;8.55;;;;;;;;;;5063828;28;20231;-66
2022/03/28 10:00:08;;;;;;;14.20;9.27;;;;;;;;;;5057695;28;20591;-64
2022/03/28 10:02:33;;;;;;;14.55;8.80;;;;;;;;;;5054609;28;20207;-66
2022/03/28 10:04:58;;;;;;;16.83;10.50;;;;;;;;;;5054593;28;20294;-66
2022/03/28 10:07:24;;;;;;;16.73;9.57;;;;;;;;;;5035130;28;20241;-66
2022/03/28 10:09:50;;;;;;;13.57;9.55;;;;;;;;;;5054325;28;20215;-66
2022/03/28 10:12:16;;;;;;;14.50;9.38;;;;;;;;;;5036270;28;20753;-66
2022/03/28 10:14:42;;;;;;;14.40;9.38;;;;;;;;;;5055346;28;20301;-66
2022/03/28 10:17:07;;;;;;;14.02;9.55;;;;;;;;;;5053709;28;20226;-66
2022/03/28 10:19:33;;;;;;;15.80;9.55;;;;;;;;;;5054026;28;20211;-65
2022/03/28 10:21:58;;;;;;;16.67;9.32;;;;;;;;;;5053195;28;20211;-66
2022/03/28 10:24:24;;;;;;;13.23;8.48;;;;;;;;;;5040442;28;20263;-65
2022/03/28 10:26:52;;;;;;;16.00;9.38;;;;;;;;;;5056198;28;20213;-67
2022/03/28 10:29:19;;;;;;;13.57;8.80;;;;;;;;;;5054257;28;20219;-65
2022/03/28 10:31:53;;;;;;;13.77;9.00;;;;;;;;;;5053694;28;20275;-65
2022/03/28 10:34:36;;;;;;;16.13;9.27;;;;;;;;;;5061201;28;20642;-65
2022/03/28 10:37:21;;;;;;;13.18;8.02;;;;;;;;;;5052576;28;20230;-65
2022/03/28 10:39:46;;;;;;;12.77;9.20;;;;;;;;;;5053596;28;20207;-65
2022/03/28 10:42:13;;;;;;;16.27;9.68;;;;;;;;;;5052509;28;20222;-66
2022/03/28 10:44:43;;;;;;;14.20;8.73;;;;;;;;;;5056756;28;20668;-65
2022/03/28 10:47:09;;;;;;;14.15;9.20;;;;;;;;;;5064619;28;20219;-69
2022/03/28 10:49:34;;;;;;;14.90;9.52;;;;;;;;;;5052757;28;20581;-67
2022/03/28 10:51:59;;;;;;;15.25;9.20;;;;;;;;;;5035749;28;20215;-66
2022/03/28 10:54:24;;;;;;;16.55;10.88;;;;;;;;;;5035039;28;20215;-67
2022/03/28 10:56:56;;;;;;;15.68;9.68;;;;;;;;;;5034616;28;20353;-65
2022/03/28 10:59:21;;;;;;;16.85;9.20;;;;;;;;;;5036096;28;20571;-67
2022/03/28 11:01:49;;;;;;;15.45;9.85;;;;;;;;;;5053474;28;20211;-67
2022/03/28 11:04:15;;;;;;;16.48;10.27;;;;;;;;;;5079764;28;20213;-67
2022/03/28 11:06:52;;;;;;;19.05;12.00;;;;;;;;;;5091488;28;20259;-67
2022/03/28 11:09:36;;;;;;;15.32;10.35;;;;;;;;;;5090583;28;20296;-67
2022/03/28 11:12:04;;;;;;;20.50;12.02;;;;;;;;;;5090056;28;20268;-67
2022/03/28 11:14:43;;;;;;;17.98;11.57;;;;;;;;;;5061341;28;20211;-67
2022/03/28 11:17:15;;;;;;;19.98;12.68;;;;;;;;;;5050666;28;20219;-67
2022/03/28 11:19:51;;;;;;;19.67;12.88;;;;;;;;;;5051105;28;20207;-67
2022/03/28 11:22:17;;;;;;;19.75;12.43;;;;;;;;;;5050295;28;20223;-67
2022/03/28 11:24:43;;;;;;;19.23;12.07;;;;;;;;;;5032294;28;20385;-67
2022/03/28 11:27:08;;;;;;;22.45;12.10;;;;;;;;;;5050316;28;20214;-67
2022/03/28 11:29:34;;;;;;;17.85;11.82;;;;;;;;;;5051068;28;20207;-67
2022/03/28 11:32:08;;;;;;;24.20;12.82;;;;;;;;;;5049669;28;20341;-67
2022/03/28 11:34:33;;;;;;;19.77;13.02;;;;;;;;;;5050360;28;20206;-67
2022/03/28 11:36:59;;;;;;;21.05;12.27;;;;;;;;;;5032883;28;20227;-67
2022/03/28 11:39:26;;;;;;;19.33;11.50;;;;;;;;;;5049793;28;20214;-67
2022/03/28 11:41:52;;;;;;;24.80;12.68;;;;;;;;;;5050919;28;20249;-67
2022/03/28 11:44:17;;;;;;;20.95;12.07;;;;;;;;;;5050562;28;20632;-67
2022/03/28 11:46:43;;;;;;;19.17;11.45;;;;;;;;;;5069863;28;20218;-68
2022/03/28 11:49:09;;;;;;;18.55;11.93;;;;;;;;;;5061288;28;20203;-68
2022/03/28 11:51:35;;;;;;;23.05;12.65;;;;;;;;;;5050447;28;20222;-68
2022/03/28 11:54:01;;;;;;;19.67;11.88;;;;;;;;;;5049392;28;20306;-65
2022/03/28 11:56:27;;;;;;;18.45;11.35;;;;;;;;;;5050196;28;20673;-68
2022/03/28 11:59:04;;;;;;;19.60;11.85;;;;;;;;;;5056633;28;20684;-68
2022/03/28 12:01:30;;;;;;;23.58;12.73;;;;;;;;;;5051477;28;20205;-68
2022/03/28 12:03:55;;;;;;;23.65;13.23;;;;;;;;;;5070345;28;20206;-68
2022/03/28 12:06:25;;;;;;;23.35;12.75;;;;;;;;;;5069958;28;20229;-68
2022/03/28 12:08:50;;;;;;;23.40;12.25;;;;;;;;;;5070095;28;20214;-68
2022/03/28 12:11:16;;;;;;;22.90;12.90;;;;;;;;;;5069812;28;20245;-68
2022/03/28 12:13:41;;;;;;;21.70;12.90;;;;;;;;;;5060249;28;20579;-69
2022/03/28 12:16:06;;;;;;;24.58;12.93;;;;;;;;;;5049864;28;20217;-68
2022/03/28 12:18:31;;;;;;;20.17;13.07;;;;;;;;;;5050073;28;20693;-69
2022/03/28 12:20:57;;;;;;;26.38;13.90;;;;;;;;;;5054424;28;20239;-69
2022/03/28 12:23:22;;;;;;;28.08;13.43;;;;;;;;;;5056202;28;20221;-68
2022/03/28 12:25:49;;;;;;;23.33;13.30;;;;;;;;;;5038939;28;20549;-69
2022/03/28 12:28:16;;;;;;;23.05;13.30;;;;;;;;;;5037798;28;20482;-69
2022/03/28 12:30:42;;;;;;;24.30;13.13;;;;;;;;;;5039347;28;20207;-69
2022/03/28 12:33:09;;;;;;;28.38;15.10;;;;;;;;;;5038610;28;20356;-69
2022/03/28 12:35:35;;;;;;;22.52;12.50;;;;;;;;;;5055912;28;20295;-69
2022/03/28 12:38:03;;;;;;;28.50;13.65;;;;;;;;;;5038496;28;20203;-66
2022/03/28 12:40:29;;;;;;;23.80;12.50;;;;;;;;;;5038809;28;20279;-69
2022/03/28 12:42:54;;;;;;;24.52;12.63;;;;;;;;;;5037977;28;20741;-69
2022/03/28 12:45:23;;;;;;;24.10;13.48;;;;;;;;;;5065034;28;20210;-69
2022/03/28 12:47:55;;;;;;;24.75;12.63;;;;;;;;;;5076388;28;20202;-69
2022/03/28 12:50:20;;;;;;;27.85;12.23;;;;;;;;;;5075226;28;20678;-69
2022/03/28 12:52:46;;;;;;;25.40;12.50;;;;;;;;;;5076578;28;20222;-69
2022/03/28 12:55:12;;;;;;;24.10;11.93;;;;;;;;;;5076186;28;20210;-69
2022/03/28 12:57:39;;;;;;;21.73;12.40;;;;;;;;;;5075632;28;20226;-69
2022/03/28 13:00:05;;;;;;;22.98;11.95;;;;;;;;;;5059820;28;20203;-69
2022/03/28 13:02:30;;;;;;;22.13;11.52;;;;;;;;;;5056637;28;20238;-70
2022/03/28 13:04:56;;;;;;;23.77;11.60;;;;;;;;;;5055762;28;20238;-70
2022/03/28 13:07:23;;;;;;;23.40;11.85;;;;;;;;;;5056170;28;20714;-69
2022/03/28 13:09:54;;;;;;;25.63;13.05;;;;;;;;;;5055733;28;20286;-70
2022/03/28 13:12:19;;;;;;;24.05;11.57;;;;;;;;;;5055846;28;20297;-70
2022/03/28 13:14:46;;;;;;;27.65;13.02;;;;;;;;;;5072352;28;20317;-70
2022/03/28 13:17:12;;;;;;;25.55;12.77;;;;;;;;;;5075148;28;20657;-69
2022/03/28 13:19:38;;;;;;;26.33;12.68;;;;;;;;;;5076522;28;20202;-69
2022/03/28 13:22:05;;;;;;;26.95;12.50;;;;;;;;;;5075807;28;20218;-70
2022/03/28 13:24:30;;;;;;;24.90;12.00;;;;;;;;;;5075730;28;20576;-70
2022/03/28 13:28:01;;;;;;;22.30;11.50;;;;;;;;;;5076653;28;20205;-69
2022/03/28 13:29:40;;;;;;;26.55;13.70;;;;;;;;;;5060970;28;20234;-70
2022/03/28 13:32:06;;;;;;;26.17;12.90;;;;;;;;;;5073009;28;20247;-68
2022/03/28 13:34:31;;;;;;;24.88;12.55;;;;;;;;;;5073196;28;20302;-70
2022/03/28 13:36:58;;;;;;;21.92;10.65;;;;;;;;;;5072968;28;20207;-70
2022/03/28 13:39:23;;;;;;;24.58;10.95;;;;;;;;;;5054020;28;20220;-70
2022/03/28 13:41:48;;;;;;;23.90;9.45;;;;;;;;;;5073172;28;20285;-70
2022/03/28 13:44:14;;;;;;;24.70;9.98;;;;;;;;;;5072232;28;20240;-70
2022/03/28 13:46:39;;;;;;;27.38;10.52;;;;;;;;;;5052415;28;20264;-70
2022/03/28 13:49:05;;;;;;;23.02;10.52;;;;;;;;;;5034695;28;20290;-70
2022/03/28 13:51:30;;;;;;;24.15;9.88;;;;;;;;;;5052620;28;20218;-71
2022/03/28 13:53:56;;;;;;;23.08;10.20;;;;;;;;;;5051863;28;20227;-70
2022/03/28 13:56:21;;;;;;;22.40;9.57;;;;;;;;;;5052093;28;20241;-70
2022/03/28 13:58:47;;;;;;;25.63;9.93;;;;;;;;;;5058020;28;20216;-70
2022/03/28 14:01:12;;;;;;;22.23;9.05;;;;;;;;;;5071464;28;20214;-70
2022/03/28 14:03:39;;;;;;;25.30;10.45;;;;;;;;;;5054735;28;20289;-70
2022/03/28 14:06:04;;;;;;;24.63;10.70;;;;;;;;;;5071248;28;20305;-70
2022/03/28 14:08:33;;;;;;;22.58;9.32;;;;;;;;;;5072564;28;20285;-70
2022/03/28 14:10:58;;;;;;;22.40;9.68;;;;;;;;;;5072552;28;20218;-71
2022/03/28 14:13:23;;;;;;;22.55;10.15;;;;;;;;;;5064142;28;20310;-70
2022/03/28 14:15:49;;;;;;;21.85;9.45;;;;;;;;;;5052516;28;20684;-71
2022/03/28 14:18:17;;;;;;;21.38;10.10;;;;;;;;;;5052062;28;20211;-70
2022/03/28 14:20:43;;;;;;;21.00;9.52;;;;;;;;;;5051965;28;20231;-71